createdAt,value
2022-12-27T00:01:46.993Z,97.13
2022-12-27T00:04:48.885Z,97.45
2022-12-27T00:07:50.543Z,97.43
2022-12-27T00:10:53.546Z,97.90
2022-12-27T00:13:55.311Z,97.48
2022-12-27T00:16:57.076Z,97.84
2022-12-27T00:19:59.248Z,97.15
2022-12-27T00:23:01.117Z,96.94
2022-12-27T00:26:05.123Z,96.88
2022-12-27T00:29:06.823Z,96.74
2022-12-27T00:32:08.303Z,97.18
2022-12-27T00:35:10.404Z,97.06
2022-12-27T00:38:11.935Z,96.75
2022-12-27T00:41:15.256Z,96.50
2022-12-27T00:44:16.828Z,96.74
2022-12-27T00:47:18.383Z,96.84
2022-12-27T00:50:20.104Z,96.83
2022-12-27T00:53:21.693Z,96.56
2022-12-27T00:56:25.712Z,96.35
2022-12-27T00:59:27.318Z,98.75
2022-12-27T01:02:28.875Z,100.00
2022-12-27T01:05:30.902Z,100.00
2022-12-27T01:08:32.593Z,100.00
2022-12-27T01:11:35.883Z,100.00
2022-12-27T01:14:37.375Z,100.00
2022-12-27T01:17:38.949Z,100.00
2022-12-27T01:20:40.645Z,100.00
2022-12-27T01:23:43.226Z,100.00
2022-12-27T01:26:46.312Z,100.00
2022-12-27T01:29:47.913Z,99.72
2022-12-27T01:32:49.532Z,99.01
2022-12-27T01:35:51.261Z,99.08
2022-12-27T01:38:52.835Z,99.15
2022-12-27T01:42:14.183Z,98.29
2022-12-27T01:45:16.044Z,98.27
2022-12-27T01:48:19.348Z,97.84
2022-12-27T01:51:21.030Z,97.92
2022-12-27T01:54:22.878Z,97.49
2022-12-27T01:57:25.879Z,97.76
2022-12-27T02:00:27.500Z,97.84
2022-12-27T02:03:30.778Z,98.14
2022-12-27T02:06:33.068Z,97.34
2022-12-27T02:09:38.432Z,97.80
2022-12-27T02:12:41.447Z,97.99
2022-12-27T02:15:43.109Z,97.43
2022-12-27T02:18:45.140Z,97.85
2022-12-27T02:21:56.223Z,98.04
2022-12-27T02:25:10.562Z,98.12
2022-12-27T02:28:20.101Z,98.27
2022-12-27T02:31:29.566Z,98.31
2022-12-27T02:34:34.699Z,98.72
2022-12-27T02:37:39.066Z,98.78
2022-12-27T02:41:00.169Z,98.84
2022-12-27T02:44:20.179Z,98.93
2022-12-27T02:47:43.171Z,98.87
2022-12-27T02:51:11.308Z,99.12
2022-12-27T02:54:21.604Z,99.47
2022-12-27T02:57:29.771Z,99.60
2022-12-27T03:00:54.149Z,99.84
2022-12-27T03:04:05.444Z,100.00
2022-12-27T03:07:17.165Z,100.00
2022-12-27T03:10:44.945Z,100.00
2022-12-27T03:14:07.595Z,100.00
2022-12-27T03:17:11.582Z,100.00
2022-12-27T03:20:35.038Z,100.00
2022-12-27T03:23:57.418Z,100.00
2022-12-27T03:27:00.531Z,100.00
2022-12-27T03:30:23.032Z,100.00
2022-12-27T03:33:26.009Z,100.00
2022-12-27T03:36:47.435Z,100.00
2022-12-27T03:39:52.919Z,100.00
2022-12-27T03:43:11.136Z,100.00
2022-12-27T03:46:35.497Z,100.00
2022-12-27T03:49:41.293Z,100.00
2022-12-27T03:52:47.001Z,100.00
2022-12-27T03:55:49.072Z,100.00
2022-12-27T03:58:51.591Z,100.00
2022-12-27T04:01:53.331Z,100.00
2022-12-27T04:04:55.148Z,100.00
2022-12-27T04:08:16.322Z,100.00
2022-12-27T04:11:36.427Z,100.00
2022-12-27T04:14:56.867Z,100.00
2022-12-27T04:18:17.245Z,100.00
2022-12-27T04:21:37.558Z,100.00
2022-12-27T04:24:59.003Z,100.00
2022-12-27T04:28:19.181Z,100.00
2022-12-27T04:31:39.428Z,100.00
2022-12-27T04:34:44.188Z,100.00
2022-12-27T04:37:45.811Z,100.00
2022-12-27T04:41:06.969Z,100.00
2022-12-27T04:44:26.943Z,100.00
2022-12-27T04:47:47.563Z,100.00
2022-12-27T04:51:07.529Z,100.00
2022-12-27T04:54:33.571Z,100.00
2022-12-27T04:57:36.529Z,100.00
2022-12-27T05:00:57.382Z,100.00
2022-12-27T05:03:58.968Z,100.00
2022-12-27T05:07:20.561Z,100.00
2022-12-27T05:10:40.836Z,100.00
2022-12-27T05:14:16.657Z,100.00
2022-12-27T05:17:18.627Z,100.00
2022-12-27T05:20:20.494Z,100.00
2022-12-27T05:23:40.821Z,100.00
2022-12-27T05:26:42.470Z,100.00
2022-12-27T05:29:45.576Z,100.00
2022-12-27T05:32:47.099Z,100.00
2022-12-27T05:35:48.639Z,100.00
2022-12-27T05:38:50.324Z,100.00
2022-12-27T05:41:52.213Z,100.00
2022-12-27T05:44:55.204Z,100.00
2022-12-27T05:51:28.946Z,100.00
2022-12-27T05:54:30.505Z,100.00
2022-12-27T05:57:32.275Z,100.00
2022-12-27T06:00:35.719Z,100.00
2022-12-27T06:03:37.803Z,100.00
2022-12-27T06:06:40.068Z,100.00
2022-12-27T06:09:41.766Z,100.00
2022-12-27T06:12:43.261Z,100.00
2022-12-27T06:15:46.187Z,100.00
2022-12-27T06:18:47.737Z,100.00
2022-12-27T06:21:49.425Z,100.00
2022-12-27T06:24:51.051Z,100.00
2022-12-27T06:27:52.776Z,100.00
2022-12-27T06:30:57.974Z,100.00
2022-12-27T06:33:59.459Z,100.00
2022-12-27T06:37:01.058Z,100.00
2022-12-27T06:40:02.589Z,100.00
2022-12-27T06:43:04.203Z,100.00
2022-12-27T06:46:12.396Z,100.00
2022-12-27T06:49:20.015Z,100.00
2022-12-27T06:52:23.234Z,100.00
2022-12-27T06:55:24.859Z,100.00
2022-12-27T06:58:26.353Z,100.00
2022-12-27T07:01:29.358Z,100.00
2022-12-27T07:04:30.904Z,100.00
2022-12-27T07:07:32.556Z,100.00
2022-12-27T07:10:35.737Z,100.00
2022-12-27T07:13:38.936Z,100.00
2022-12-27T07:16:41.935Z,100.00
2022-12-27T07:19:43.481Z,100.00
2022-12-27T07:22:45.061Z,100.00
2022-12-27T07:25:46.606Z,100.00
2022-12-27T07:28:49.873Z,100.00
2022-12-27T07:31:52.887Z,100.00
2022-12-27T07:34:54.632Z,100.00
2022-12-27T07:37:56.211Z,100.00
2022-12-27T07:40:58.547Z,100.00
2022-12-27T07:44:00.070Z,100.00
2022-12-27T07:47:02.999Z,100.00
2022-12-27T07:50:04.830Z,100.00
2022-12-27T07:53:06.330Z,100.00
2022-12-27T07:56:12.635Z,100.00
2022-12-27T07:59:14.529Z,100.00
2022-12-27T08:02:17.729Z,100.00
2022-12-27T08:05:24.339Z,100.00
2022-12-27T08:08:36.341Z,100.00
2022-12-27T08:11:37.847Z,100.00
2022-12-27T08:14:39.417Z,100.00
2022-12-27T08:17:43.686Z,100.00
2022-12-27T08:20:45.199Z,100.00
2022-12-27T08:23:46.712Z,100.00
2022-12-27T08:26:48.574Z,100.00
2022-12-27T08:29:50.351Z,100.00
2022-12-27T08:32:53.239Z,100.00
2022-12-27T08:35:57.084Z,100.00
2022-12-27T08:38:58.839Z,100.00
2022-12-27T08:42:00.394Z,100.00
2022-12-27T08:45:02.012Z,100.00
2022-12-27T08:48:05.345Z,100.00
2022-12-27T08:51:12.581Z,100.00
2022-12-27T08:54:16.318Z,100.00
2022-12-27T08:57:17.951Z,100.00
2022-12-27T09:00:19.627Z,99.92
2022-12-27T09:03:22.616Z,100.00
2022-12-27T09:06:24.815Z,100.00
2022-12-27T09:09:26.371Z,100.00
2022-12-27T09:12:28.052Z,100.00
2022-12-27T09:15:29.801Z,100.00
2022-12-27T09:18:32.782Z,100.00
2022-12-27T09:21:34.444Z,100.00
2022-12-27T09:24:35.995Z,100.00
2022-12-27T09:27:38.188Z,100.00
2022-12-27T09:30:41.117Z,100.00
2022-12-27T09:33:44.070Z,100.00
2022-12-27T09:36:45.638Z,100.00
2022-12-27T09:39:47.246Z,99.90
2022-12-27T09:43:09.459Z,100.00
2022-12-27T09:46:18.418Z,99.83
2022-12-27T09:49:25.412Z,99.85
2022-12-27T09:52:28.080Z,99.60
2022-12-27T09:55:37.142Z,99.50
2022-12-27T09:58:43.034Z,98.84
2022-12-27T10:01:44.871Z,99.23
2022-12-27T10:05:18.710Z,99.98
2022-12-27T10:08:17.676Z,99.89
2022-12-27T10:11:36.993Z,100.00
2022-12-27T10:14:47.293Z,100.00
2022-12-27T10:17:54.578Z,100.00
2022-12-27T10:21:02.059Z,100.00
2022-12-27T10:24:11.965Z,100.00
2022-12-27T10:27:14.673Z,100.00
2022-12-27T10:30:17.714Z,100.00
2022-12-27T10:33:20.470Z,100.00
2022-12-27T10:36:25.852Z,100.00
2022-12-27T10:39:29.035Z,100.00
2022-12-27T10:42:34.028Z,100.00
2022-12-27T10:45:39.122Z,100.00
2022-12-27T10:49:18.908Z,100.00
2022-12-27T10:52:09.112Z,100.00
2022-12-27T10:55:30.524Z,99.99
2022-12-27T10:58:37.345Z,99.31
2022-12-27T11:01:39.310Z,100.00
2022-12-27T11:04:55.025Z,99.87
2022-12-27T11:08:01.291Z,100.00
2022-12-27T11:11:11.933Z,100.00
2022-12-27T11:14:16.837Z,100.00
2022-12-27T11:17:19.173Z,100.00
2022-12-27T11:20:22.417Z,99.29
2022-12-27T11:23:29.596Z,99.02
2022-12-27T11:26:33.732Z,99.52
2022-12-27T11:29:35.566Z,99.53
2022-12-27T11:32:37.440Z,99.67
2022-12-27T11:35:46.394Z,99.97
2022-12-27T11:38:49.885Z,99.83
2022-12-27T11:41:54.931Z,99.29
2022-12-27T11:45:04.245Z,98.84
2022-12-27T11:48:11.128Z,98.66
2022-12-27T11:51:30.550Z,98.85
2022-12-27T11:54:39.279Z,98.93
2022-12-27T11:57:54.172Z,98.96
2022-12-27T12:01:03.663Z,98.84
2022-12-27T12:04:13.811Z,99.19
2022-12-27T12:07:20.296Z,97.81
2022-12-27T12:10:30.106Z,97.93
2022-12-27T12:13:44.288Z,98.80
2022-12-27T12:17:04.949Z,96.94
2022-12-27T12:20:16.059Z,97.04
2022-12-27T12:23:27.823Z,97.07
2022-12-27T12:26:35.189Z,97.14
2022-12-27T12:29:47.384Z,96.98
2022-12-27T12:32:59.499Z,95.83
2022-12-27T12:36:15.024Z,96.29
2022-12-27T12:39:22.471Z,95.89
2022-12-27T12:42:30.441Z,96.47
2022-12-27T12:45:38.742Z,96.18
2022-12-27T12:48:54.651Z,96.62
2022-12-27T12:52:03.396Z,97.13
2022-12-27T12:55:17.311Z,96.69
2022-12-27T12:58:28.818Z,97.26
2022-12-27T13:01:39.646Z,97.47
2022-12-27T13:04:55.442Z,96.88
2022-12-27T13:08:01.957Z,97.30
2022-12-27T13:11:22.450Z,97.25
2022-12-27T13:14:32.753Z,97.24
2022-12-27T13:17:39.169Z,97.02
2022-12-27T13:20:50.204Z,97.62
2022-12-27T13:23:59.033Z,98.16
2022-12-27T13:27:05.532Z,98.26
2022-12-27T13:30:16.628Z,98.56
2022-12-27T13:33:26.615Z,98.21
2022-12-27T13:36:32.484Z,97.36
2022-12-27T13:39:39.155Z,97.70
2022-12-27T13:42:47.083Z,97.36
2022-12-27T13:45:57.919Z,97.02
2022-12-27T13:49:08.530Z,97.30
2022-12-27T13:52:15.206Z,97.69
2022-12-27T13:55:28.090Z,97.80
2022-12-27T13:58:48.494Z,97.86
2022-12-27T14:02:00.971Z,97.81
2022-12-27T14:05:32.884Z,97.71
2022-12-27T14:08:55.021Z,98.49
2022-12-27T14:12:05.385Z,97.77
2022-12-27T14:15:08.172Z,98.26
2022-12-27T14:18:20.915Z,98.87
2022-12-27T14:21:35.260Z,98.79
2022-12-27T14:24:53.675Z,98.85
2022-12-27T14:28:12.194Z,98.77
2022-12-27T14:31:41.396Z,98.69
2022-12-27T14:35:09.242Z,98.02
2022-12-27T14:38:24.364Z,98.11
2022-12-27T14:41:44.740Z,98.60
2022-12-27T14:45:05.138Z,98.21
2022-12-27T14:48:24.586Z,98.50
2022-12-27T14:55:13.766Z,98.35
2022-12-27T14:58:36.555Z,98.61
2022-12-27T15:01:48.546Z,98.47
2022-12-27T15:04:58.463Z,98.63
2022-12-27T15:08:07.123Z,98.28
2022-12-27T15:11:21.750Z,98.17
2022-12-27T15:14:41.446Z,98.47
2022-12-27T15:17:50.800Z,98.36
2022-12-27T15:21:00.339Z,98.67
2022-12-27T15:24:07.259Z,98.84
2022-12-27T15:27:19.269Z,98.68
2022-12-27T15:30:24.575Z,99.07
2022-12-27T15:33:31.504Z,98.86
2022-12-27T15:36:37.360Z,98.79
2022-12-27T15:39:47.362Z,99.24
2022-12-27T15:42:54.103Z,99.17
2022-12-27T15:46:04.795Z,99.14
2022-12-27T15:49:15.054Z,99.19
2022-12-27T15:52:22.104Z,99.42
2022-12-27T15:55:34.604Z,99.28
2022-12-27T15:58:36.557Z,99.06
2022-12-27T16:01:39.228Z,99.11
2022-12-27T16:04:46.438Z,98.76
2022-12-27T16:07:50.148Z,98.88
2022-12-27T16:10:53.812Z,99.03
2022-12-27T16:14:15.370Z,98.96
2022-12-27T16:17:27.815Z,99.19
2022-12-27T16:20:30.064Z,98.89
2022-12-27T16:23:33.583Z,99.31
2022-12-27T16:26:45.617Z,99.22
2022-12-27T16:29:47.308Z,99.18
2022-12-27T16:32:49.194Z,98.31
2022-12-27T16:36:09.797Z,98.47
2022-12-27T16:39:32.524Z,98.50
2022-12-27T16:42:55.963Z,98.28
2022-12-27T16:46:05.571Z,97.89
2022-12-27T16:49:28.188Z,98.62
2022-12-27T16:52:44.440Z,98.88
2022-12-27T16:55:55.483Z,98.61
2022-12-27T16:58:58.415Z,98.52
2022-12-27T17:02:00.069Z,98.86
2022-12-27T17:05:01.997Z,98.72
2022-12-27T17:08:13.839Z,98.48
2022-12-27T17:11:25.525Z,98.58
2022-12-27T17:14:33.699Z,98.65
2022-12-27T17:17:36.128Z,98.62
2022-12-27T17:20:39.046Z,98.89
2022-12-27T17:23:41.603Z,98.00
2022-12-27T17:27:04.600Z,98.44
2022-12-27T17:30:12.571Z,98.19
2022-12-27T17:33:20.576Z,98.36
2022-12-27T17:36:28.267Z,98.08
2022-12-27T17:39:52.997Z,97.70
2022-12-27T17:43:18.911Z,98.19
2022-12-27T17:46:28.124Z,98.21
2022-12-27T17:49:31.198Z,97.67
2022-12-27T17:52:51.574Z,97.81
2022-12-27T17:56:18.948Z,97.28
2022-12-27T17:59:24.541Z,97.33
2022-12-27T18:02:29.672Z,97.64
2022-12-27T18:05:33.718Z,97.70
2022-12-27T18:08:36.191Z,97.14
2022-12-27T18:11:41.162Z,96.77
2022-12-27T18:14:43.389Z,97.34
2022-12-27T18:17:47.581Z,97.06
2022-12-27T18:20:54.163Z,96.46
2022-12-27T18:23:56.494Z,96.72
2022-12-27T18:27:03.173Z,95.10
2022-12-27T18:30:05.369Z,95.52
2022-12-27T18:33:10.729Z,94.87
2022-12-27T18:36:13.852Z,95.37
2022-12-27T18:39:23.644Z,95.41
2022-12-27T18:42:29.772Z,94.51
2022-12-27T18:45:33.340Z,93.68
2022-12-27T18:48:36.336Z,93.50
2022-12-27T18:51:38.641Z,93.18
2022-12-27T18:54:43.057Z,93.82
2022-12-27T18:57:45.042Z,93.95
2022-12-27T19:00:47.755Z,94.11
2022-12-27T19:04:05.283Z,94.00
2022-12-27T19:07:09.535Z,94.96
2022-12-27T19:10:15.974Z,94.47
2022-12-27T19:13:20.935Z,94.90
2022-12-27T19:16:24.486Z,95.43
2022-12-27T19:19:29.341Z,95.62
2022-12-27T19:22:34.210Z,95.26
2022-12-27T19:25:36.448Z,95.42
2022-12-27T19:28:38.034Z,95.49
2022-12-27T19:31:41.816Z,95.02
2022-12-27T19:34:45.949Z,95.15
2022-12-27T19:37:47.461Z,95.15
2022-12-27T19:40:50.884Z,95.14
2022-12-27T19:43:53.186Z,94.21
2022-12-27T19:46:54.790Z,93.85
2022-12-27T19:49:57.774Z,94.27
2022-12-27T19:52:59.800Z,94.83
2022-12-27T19:56:02.964Z,94.91
2022-12-27T19:59:04.681Z,95.29
2022-12-27T20:02:06.449Z,95.58
2022-12-27T20:05:10.255Z,95.46
2022-12-27T20:08:18.253Z,96.22
2022-12-27T20:11:21.259Z,96.22
2022-12-27T20:14:23.080Z,96.60
2022-12-27T20:17:24.634Z,97.08
2022-12-27T20:20:27.708Z,96.75
2022-12-27T20:23:29.290Z,96.79
2022-12-27T20:26:30.937Z,96.49
2022-12-27T20:29:32.602Z,96.92
2022-12-27T20:32:34.295Z,97.27
2022-12-27T20:35:37.235Z,97.77
2022-12-27T20:38:39.273Z,97.48
2022-12-27T20:41:40.872Z,98.02
2022-12-27T20:44:42.738Z,97.94
2022-12-27T20:47:44.864Z,98.16
2022-12-27T20:50:47.880Z,98.19
2022-12-27T20:53:54.593Z,97.87
2022-12-27T20:56:56.859Z,97.90
2022-12-27T20:59:58.371Z,97.98
2022-12-27T21:03:00.233Z,97.87
2022-12-27T21:06:06.839Z,97.92
2022-12-27T21:09:08.775Z,97.73
2022-12-27T21:12:10.863Z,98.00
2022-12-27T21:15:12.881Z,97.90
2022-12-27T21:18:15.356Z,97.63
2022-12-27T21:21:20.077Z,97.77
2022-12-27T21:24:24.035Z,97.79
2022-12-27T21:27:25.690Z,97.86
2022-12-27T21:30:27.353Z,97.82
2022-12-27T21:33:29.354Z,97.36
2022-12-27T21:36:35.090Z,97.67
2022-12-27T21:39:38.096Z,97.73
2022-12-27T21:42:39.691Z,97.97
2022-12-27T21:45:41.259Z,97.89
2022-12-27T21:48:43.502Z,98.11
2022-12-27T21:51:46.537Z,98.42
2022-12-27T21:54:52.097Z,98.58
2022-12-27T21:57:53.692Z,98.67
2022-12-27T22:01:03.642Z,98.61
2022-12-27T22:04:08.127Z,98.69
2022-12-27T22:07:11.360Z,98.55
2022-12-27T22:10:12.946Z,98.64
2022-12-27T22:13:14.640Z,98.72
2022-12-27T22:16:18.604Z,98.82
2022-12-27T22:19:20.219Z,98.75
2022-12-27T22:22:23.076Z,98.65
2022-12-27T22:25:24.649Z,98.55
2022-12-27T22:28:26.245Z,98.27
2022-12-27T22:31:30.360Z,98.14
2022-12-27T22:34:32.219Z,98.21
2022-12-27T22:37:35.285Z,98.25
2022-12-27T22:40:46.517Z,98.29
2022-12-27T22:43:49.831Z,98.42
2022-12-27T22:47:24.531Z,98.26
2022-12-27T22:50:12.909Z,98.33
2022-12-27T22:53:15.838Z,98.90
2022-12-27T22:56:18.363Z,98.32
2022-12-27T22:59:19.923Z,98.35
2022-12-27T23:02:21.582Z,98.00
2022-12-27T23:05:24.508Z,98.03
2022-12-27T23:08:29.114Z,98.08
2022-12-27T23:11:31.498Z,97.93
2022-12-27T23:14:33.010Z,97.88
2022-12-27T23:17:34.520Z,97.80
2022-12-27T23:20:36.034Z,97.59
2022-12-27T23:23:38.899Z,97.49
2022-12-27T23:26:41.136Z,97.92
2022-12-27T23:29:42.714Z,97.81
2022-12-27T23:32:44.246Z,97.33
2022-12-27T23:35:45.768Z,97.31
2022-12-27T23:38:49.172Z,97.37
2022-12-27T23:41:50.692Z,97.29
2022-12-27T23:44:52.630Z,97.57
2022-12-27T23:47:54.253Z,97.80
2022-12-27T23:50:55.850Z,97.42
2022-12-27T23:53:59.406Z,97.16
2022-12-27T23:57:19.988Z,97.03
